sensor_id;sensor_type;location;lat;lon;timestamp;P1;durP1;ratioP1;P2;durP2;ratioP2
12312;SDS011;6220;53.580;9.758;2023-06-10T00:01:26;9.90;;;4.80;;
12312;SDS011;6220;53.580;9.758;2023-06-10T00:03:52;7.63;;;4.00;;
12312;SDS011;6220;53.580;9.758;2023-06-10T00:06:18;7.67;;;4.47;;
12312;SDS011;6220;53.580;9.758;2023-06-10T00:08:43;7.63;;;4.17;;
12312;SDS011;6220;53.580;9.758;2023-06-10T00:11:10;8.77;;;4.87;;
12312;SDS011;6220;53.580;9.758;2023-06-10T00:13:35;5.53;;;3.97;;
12312;SDS011;6220;53.580;9.758;2023-06-10T00:16:02;6.97;;;4.53;;
12312;SDS011;6220;53.580;9.758;2023-06-10T00:18:28;9.97;;;4.50;;
12312;SDS011;6220;53.580;9.758;2023-06-10T00:20:56;7.43;;;4.57;;
12312;SDS011;6220;53.580;9.758;2023-06-10T00:23:22;11.47;;;4.53;;
12312;SDS011;6220;53.580;9.758;2023-06-10T00:25:50;8.40;;;4.53;;
12312;SDS011;6220;53.580;9.758;2023-06-10T00:28:15;9.33;;;4.77;;
12312;SDS011;6220;53.580;9.758;2023-06-10T00:30:40;8.57;;;4.33;;
12312;SDS011;6220;53.580;9.758;2023-06-10T00:33:06;8.47;;;4.60;;
12312;SDS011;6220;53.580;9.758;2023-06-10T00:35:31;9.60;;;4.80;;
12312;SDS011;6220;53.580;9.758;2023-06-10T00:37:56;7.90;;;4.33;;
12312;SDS011;6220;53.580;9.758;2023-06-10T00:40:22;9.50;;;4.87;;
12312;SDS011;6220;53.580;9.758;2023-06-10T00:42:47;6.10;;;3.77;;
12312;SDS011;6220;53.580;9.758;2023-06-10T00:45:13;8.90;;;4.63;;
12312;SDS011;6220;53.580;9.758;2023-06-10T00:47:39;10.27;;;3.90;;
12312;SDS011;6220;53.580;9.758;2023-06-10T00:50:05;8.33;;;4.20;;
12312;SDS011;6220;53.580;9.758;2023-06-10T00:52:31;6.13;;;4.17;;
12312;SDS011;6220;53.580;9.758;2023-06-10T00:54:56;9.30;;;3.90;;
12312;SDS011;6220;53.580;9.758;2023-06-10T00:57:22;7.53;;;3.40;;
12312;SDS011;6220;53.580;9.758;2023-06-10T00:59:48;6.50;;;3.53;;
12312;SDS011;6220;53.580;9.758;2023-06-10T01:02:14;6.87;;;3.47;;
12312;SDS011;6220;53.580;9.758;2023-06-10T01:04:40;7.67;;;4.07;;
12312;SDS011;6220;53.580;9.758;2023-06-10T01:07:25;6.13;;;3.90;;
12312;SDS011;6220;53.580;9.758;2023-06-10T01:10:11;9.63;;;3.63;;
12312;SDS011;6220;53.580;9.758;2023-06-10T01:12:55;6.97;;;3.43;;
12312;SDS011;6220;53.580;9.758;2023-06-10T01:15:24;5.70;;;3.20;;
12312;SDS011;6220;53.580;9.758;2023-06-10T01:18:03;5.40;;;3.20;;
12312;SDS011;6220;53.580;9.758;2023-06-10T01:20:30;5.47;;;3.53;;
12312;SDS011;6220;53.580;9.758;2023-06-10T01:22:59;7.60;;;3.87;;
12312;SDS011;6220;53.580;9.758;2023-06-10T01:25:26;5.67;;;3.13;;
12312;SDS011;6220;53.580;9.758;2023-06-10T01:28:08;7.20;;;3.50;;
12312;SDS011;6220;53.580;9.758;2023-06-10T01:30:55;5.30;;;3.10;;
12312;SDS011;6220;53.580;9.758;2023-06-10T01:33:33;6.73;;;3.43;;
12312;SDS011;6220;53.580;9.758;2023-06-10T01:36:01;8.50;;;3.70;;
12312;SDS011;6220;53.580;9.758;2023-06-10T01:38:27;6.57;;;3.20;;
12312;SDS011;6220;53.580;9.758;2023-06-10T01:40:56;7.13;;;3.53;;
12312;SDS011;6220;53.580;9.758;2023-06-10T01:43:22;6.20;;;3.13;;
12312;SDS011;6220;53.580;9.758;2023-06-10T01:45:49;5.97;;;3.13;;
12312;SDS011;6220;53.580;9.758;2023-06-10T01:48:15;9.10;;;3.60;;
12312;SDS011;6220;53.580;9.758;2023-06-10T01:50:40;9.57;;;3.50;;
12312;SDS011;6220;53.580;9.758;2023-06-10T01:53:05;8.77;;;3.30;;
12312;SDS011;6220;53.580;9.758;2023-06-10T01:55:31;8.13;;;3.30;;
12312;SDS011;6220;53.580;9.758;2023-06-10T01:57:56;6.47;;;3.40;;
12312;SDS011;6220;53.580;9.758;2023-06-10T02:00:22;7.87;;;3.23;;
12312;SDS011;6220;53.580;9.758;2023-06-10T02:02:47;5.20;;;3.20;;
12312;SDS011;6220;53.580;9.758;2023-06-10T02:05:13;6.90;;;3.57;;
12312;SDS011;6220;53.580;9.758;2023-06-10T02:07:38;5.87;;;3.20;;
12312;SDS011;6220;53.580;9.758;2023-06-10T02:10:04;8.87;;;3.17;;
12312;SDS011;6220;53.580;9.758;2023-06-10T02:12:30;5.77;;;2.67;;
12312;SDS011;6220;53.580;9.758;2023-06-10T02:14:55;7.80;;;3.10;;
12312;SDS011;6220;53.580;9.758;2023-06-10T02:17:20;4.77;;;2.67;;
12312;SDS011;6220;53.580;9.758;2023-06-10T02:19:48;3.90;;;3.07;;
12312;SDS011;6220;53.580;9.758;2023-06-10T02:22:17;7.73;;;3.33;;
12312;SDS011;6220;53.580;9.758;2023-06-10T02:24:45;6.43;;;2.80;;
12312;SDS011;6220;53.580;9.758;2023-06-10T02:27:10;7.10;;;2.90;;
12312;SDS011;6220;53.580;9.758;2023-06-10T02:29:35;5.73;;;2.80;;
12312;SDS011;6220;53.580;9.758;2023-06-10T02:32:01;7.43;;;3.07;;
12312;SDS011;6220;53.580;9.758;2023-06-10T02:34:27;4.67;;;2.77;;
12312;SDS011;6220;53.580;9.758;2023-06-10T02:36:53;8.80;;;3.27;;
12312;SDS011;6220;53.580;9.758;2023-06-10T02:39:19;7.47;;;3.07;;
12312;SDS011;6220;53.580;9.758;2023-06-10T02:41:44;8.07;;;3.37;;
12312;SDS011;6220;53.580;9.758;2023-06-10T02:44:10;5.67;;;3.00;;
12312;SDS011;6220;53.580;9.758;2023-06-10T02:46:35;7.10;;;2.87;;
12312;SDS011;6220;53.580;9.758;2023-06-10T02:49:00;6.33;;;3.23;;
12312;SDS011;6220;53.580;9.758;2023-06-10T02:51:26;8.27;;;3.00;;
12312;SDS011;6220;53.580;9.758;2023-06-10T02:53:52;6.53;;;3.13;;
12312;SDS011;6220;53.580;9.758;2023-06-10T02:56:18;5.63;;;2.80;;
12312;SDS011;6220;53.580;9.758;2023-06-10T02:58:43;4.47;;;2.87;;
12312;SDS011;6220;53.580;9.758;2023-06-10T03:01:09;5.47;;;2.70;;
12312;SDS011;6220;53.580;9.758;2023-06-10T03:03:35;7.63;;;2.90;;
12312;SDS011;6220;53.580;9.758;2023-06-10T03:06:01;5.53;;;2.30;;
12312;SDS011;6220;53.580;9.758;2023-06-10T03:08:27;7.27;;;2.90;;
12312;SDS011;6220;53.580;9.758;2023-06-10T03:10:53;6.70;;;2.90;;
12312;SDS011;6220;53.580;9.758;2023-06-10T03:13:18;8.00;;;2.77;;
12312;SDS011;6220;53.580;9.758;2023-06-10T03:15:44;6.20;;;2.87;;
12312;SDS011;6220;53.580;9.758;2023-06-10T03:18:11;4.60;;;2.67;;
12312;SDS011;6220;53.580;9.758;2023-06-10T03:20:36;5.23;;;2.70;;
12312;SDS011;6220;53.580;9.758;2023-06-10T03:23:03;6.87;;;2.50;;
12312;SDS011;6220;53.580;9.758;2023-06-10T03:25:31;6.73;;;2.53;;
12312;SDS011;6220;53.580;9.758;2023-06-10T03:27:56;4.90;;;2.40;;
12312;SDS011;6220;53.580;9.758;2023-06-10T03:30:22;6.07;;;2.80;;
12312;SDS011;6220;53.580;9.758;2023-06-10T03:32:47;4.37;;;2.43;;
12312;SDS011;6220;53.580;9.758;2023-06-10T03:35:13;7.67;;;2.97;;
12312;SDS011;6220;53.580;9.758;2023-06-10T03:37:39;5.03;;;2.97;;
12312;SDS011;6220;53.580;9.758;2023-06-10T03:40:07;6.97;;;2.67;;
12312;SDS011;6220;53.580;9.758;2023-06-10T03:42:33;6.23;;;2.87;;
12312;SDS011;6220;53.580;9.758;2023-06-10T03:44:59;6.20;;;2.60;;
12312;SDS011;6220;53.580;9.758;2023-06-10T03:47:25;6.93;;;2.70;;
12312;SDS011;6220;53.580;9.758;2023-06-10T03:49:50;6.03;;;2.83;;
12312;SDS011;6220;53.580;9.758;2023-06-10T03:52:17;5.87;;;3.10;;
12312;SDS011;6220;53.580;9.758;2023-06-10T03:54:42;5.40;;;2.70;;
12312;SDS011;6220;53.580;9.758;2023-06-10T03:57:08;6.97;;;2.80;;
12312;SDS011;6220;53.580;9.758;2023-06-10T03:59:33;6.30;;;2.70;;
12312;SDS011;6220;53.580;9.758;2023-06-10T04:01:58;3.23;;;2.40;;
12312;SDS011;6220;53.580;9.758;2023-06-10T04:04:25;5.40;;;2.87;;
12312;SDS011;6220;53.580;9.758;2023-06-10T04:06:50;5.37;;;2.67;;
12312;SDS011;6220;53.580;9.758;2023-06-10T04:09:16;4.40;;;2.63;;
12312;SDS011;6220;53.580;9.758;2023-06-10T04:11:42;3.80;;;2.30;;
12312;SDS011;6220;53.580;9.758;2023-06-10T04:14:07;5.70;;;2.83;;
12312;SDS011;6220;53.580;9.758;2023-06-10T04:16:33;5.63;;;2.53;;
12312;SDS011;6220;53.580;9.758;2023-06-10T04:18:59;5.27;;;2.97;;
12312;SDS011;6220;53.580;9.758;2023-06-10T04:21:25;5.17;;;2.53;;
12312;SDS011;6220;53.580;9.758;2023-06-10T04:23:51;8.30;;;2.70;;
12312;SDS011;6220;53.580;9.758;2023-06-10T04:26:16;6.80;;;2.80;;
12312;SDS011;6220;53.580;9.758;2023-06-10T04:28:45;5.90;;;2.43;;
12312;SDS011;6220;53.580;9.758;2023-06-10T04:31:10;6.90;;;2.80;;
12312;SDS011;6220;53.580;9.758;2023-06-10T04:33:35;6.20;;;2.77;;
12312;SDS011;6220;53.580;9.758;2023-06-10T04:36:01;6.87;;;2.83;;
12312;SDS011;6220;53.580;9.758;2023-06-10T04:38:26;6.80;;;2.80;;
12312;SDS011;6220;53.580;9.758;2023-06-10T04:40:52;4.83;;;2.40;;
12312;SDS011;6220;53.580;9.758;2023-06-10T04:43:17;3.83;;;2.60;;
12312;SDS011;6220;53.580;9.758;2023-06-10T04:45:43;5.70;;;2.50;;
12312;SDS011;6220;53.580;9.758;2023-06-10T04:48:09;5.70;;;2.60;;
12312;SDS011;6220;53.580;9.758;2023-06-10T04:50:35;7.07;;;3.03;;
12312;SDS011;6220;53.580;9.758;2023-06-10T04:53:01;5.80;;;2.43;;
12312;SDS011;6220;53.580;9.758;2023-06-10T04:55:26;6.87;;;2.57;;
12312;SDS011;6220;53.580;9.758;2023-06-10T04:57:51;5.63;;;2.80;;
12312;SDS011;6220;53.580;9.758;2023-06-10T05:00:17;10.87;;;2.83;;
12312;SDS011;6220;53.580;9.758;2023-06-10T05:02:43;6.93;;;2.77;;
12312;SDS011;6220;53.580;9.758;2023-06-10T05:05:09;9.33;;;3.23;;
12312;SDS011;6220;53.580;9.758;2023-06-10T05:07:35;6.73;;;2.70;;
12312;SDS011;6220;53.580;9.758;2023-06-10T05:10:00;4.53;;;2.60;;
12312;SDS011;6220;53.580;9.758;2023-06-10T05:12:28;6.00;;;2.97;;
12312;SDS011;6220;53.580;9.758;2023-06-10T05:14:54;7.03;;;2.50;;
12312;SDS011;6220;53.580;9.758;2023-06-10T05:17:19;4.77;;;2.57;;
12312;SDS011;6220;53.580;9.758;2023-06-10T05:19:44;8.67;;;3.30;;
12312;SDS011;6220;53.580;9.758;2023-06-10T05:22:10;5.63;;;2.70;;
12312;SDS011;6220;53.580;9.758;2023-06-10T05:24:36;8.53;;;2.80;;
12312;SDS011;6220;53.580;9.758;2023-06-10T05:27:01;5.67;;;2.43;;
12312;SDS011;6220;53.580;9.758;2023-06-10T05:29:27;6.80;;;2.70;;
12312;SDS011;6220;53.580;9.758;2023-06-10T05:31:53;7.03;;;2.87;;
12312;SDS011;6220;53.580;9.758;2023-06-10T05:34:18;7.07;;;2.57;;
12312;SDS011;6220;53.580;9.758;2023-06-10T05:36:44;7.40;;;3.23;;
12312;SDS011;6220;53.580;9.758;2023-06-10T05:39:09;10.13;;;2.83;;
12312;SDS011;6220;53.580;9.758;2023-06-10T05:41:35;8.73;;;3.33;;
12312;SDS011;6220;53.580;9.758;2023-06-10T05:44:00;8.93;;;2.50;;
12312;SDS011;6220;53.580;9.758;2023-06-10T05:46:26;6.33;;;2.83;;
12312;SDS011;6220;53.580;9.758;2023-06-10T05:48:51;5.00;;;2.43;;
12312;SDS011;6220;53.580;9.758;2023-06-10T05:51:17;10.73;;;2.97;;
12312;SDS011;6220;53.580;9.758;2023-06-10T05:53:42;8.90;;;2.77;;
12312;SDS011;6220;53.580;9.758;2023-06-10T05:56:07;4.60;;;2.70;;
12312;SDS011;6220;53.580;9.758;2023-06-10T05:58:33;7.13;;;2.67;;
12312;SDS011;6220;53.580;9.758;2023-06-10T06:00:58;8.50;;;2.53;;
12312;SDS011;6220;53.580;9.758;2023-06-10T06:03:23;8.90;;;2.50;;
12312;SDS011;6220;53.580;9.758;2023-06-10T06:05:49;8.10;;;2.80;;
12312;SDS011;6220;53.580;9.758;2023-06-10T06:08:15;7.77;;;2.70;;
12312;SDS011;6220;53.580;9.758;2023-06-10T06:10:44;8.47;;;2.97;;
12312;SDS011;6220;53.580;9.758;2023-06-10T06:13:10;6.67;;;2.57;;
12312;SDS011;6220;53.580;9.758;2023-06-10T06:15:35;7.73;;;2.53;;
12312;SDS011;6220;53.580;9.758;2023-06-10T06:18:00;6.37;;;2.90;;
12312;SDS011;6220;53.580;9.758;2023-06-10T06:20:26;6.47;;;2.60;;
12312;SDS011;6220;53.580;9.758;2023-06-10T06:22:51;5.20;;;2.53;;
12312;SDS011;6220;53.580;9.758;2023-06-10T06:25:17;4.73;;;2.37;;
12312;SDS011;6220;53.580;9.758;2023-06-10T06:27:42;7.27;;;2.70;;
12312;SDS011;6220;53.580;9.758;2023-06-10T06:30:07;10.50;;;2.87;;
12312;SDS011;6220;53.580;9.758;2023-06-10T06:32:33;7.10;;;2.60;;
12312;SDS011;6220;53.580;9.758;2023-06-10T06:34:59;7.97;;;2.80;;
12312;SDS011;6220;53.580;9.758;2023-06-10T06:37:24;7.03;;;2.60;;
12312;SDS011;6220;53.580;9.758;2023-06-10T06:39:50;9.00;;;2.97;;
12312;SDS011;6220;53.580;9.758;2023-06-10T06:42:16;5.00;;;2.80;;
12312;SDS011;6220;53.580;9.758;2023-06-10T06:44:42;6.07;;;2.43;;
12312;SDS011;6220;53.580;9.758;2023-06-10T06:47:07;7.33;;;3.00;;
12312;SDS011;6220;53.580;9.758;2023-06-10T06:49:32;4.47;;;2.70;;
12312;SDS011;6220;53.580;9.758;2023-06-10T06:51:58;5.03;;;2.83;;
12312;SDS011;6220;53.580;9.758;2023-06-10T06:54:23;7.80;;;2.90;;
12312;SDS011;6220;53.580;9.758;2023-06-10T06:56:48;8.40;;;3.30;;
12312;SDS011;6220;53.580;9.758;2023-06-10T06:59:15;8.50;;;2.80;;
12312;SDS011;6220;53.580;9.758;2023-06-10T07:01:42;6.83;;;2.90;;
12312;SDS011;6220;53.580;9.758;2023-06-10T07:04:07;9.00;;;2.70;;
12312;SDS011;6220;53.580;9.758;2023-06-10T07:06:33;6.57;;;2.80;;
12312;SDS011;6220;53.580;9.758;2023-06-10T07:08:58;6.67;;;2.73;;
12312;SDS011;6220;53.580;9.758;2023-06-10T07:11:23;5.27;;;2.57;;
12312;SDS011;6220;53.580;9.758;2023-06-10T07:13:49;6.53;;;3.10;;
12312;SDS011;6220;53.580;9.758;2023-06-10T07:16:14;7.60;;;2.97;;
12312;SDS011;6220;53.580;9.758;2023-06-10T07:18:40;5.60;;;2.87;;
12312;SDS011;6220;53.580;9.758;2023-06-10T07:21:05;7.17;;;3.13;;
12312;SDS011;6220;53.580;9.758;2023-06-10T07:23:30;8.30;;;2.70;;
12312;SDS011;6220;53.580;9.758;2023-06-10T07:25:56;8.80;;;2.80;;
12312;SDS011;6220;53.580;9.758;2023-06-10T07:28:21;5.70;;;2.80;;
12312;SDS011;6220;53.580;9.758;2023-06-10T07:30:46;9.33;;;2.50;;
12312;SDS011;6220;53.580;9.758;2023-06-10T07:33:12;5.73;;;2.63;;
12312;SDS011;6220;53.580;9.758;2023-06-10T07:35:37;7.23;;;3.27;;
12312;SDS011;6220;53.580;9.758;2023-06-10T07:38:02;11.07;;;2.90;;
12312;SDS011;6220;53.580;9.758;2023-06-10T07:40:28;6.33;;;2.83;;
12312;SDS011;6220;53.580;9.758;2023-06-10T07:42:53;9.93;;;3.30;;
12312;SDS011;6220;53.580;9.758;2023-06-10T07:45:18;8.57;;;3.10;;
12312;SDS011;6220;53.580;9.758;2023-06-10T07:47:44;10.67;;;3.07;;
12312;SDS011;6220;53.580;9.758;2023-06-10T07:50:09;10.53;;;2.90;;
12312;SDS011;6220;53.580;9.758;2023-06-10T07:52:35;5.30;;;2.30;;
12312;SDS011;6220;53.580;9.758;2023-06-10T07:55:00;6.47;;;2.90;;
12312;SDS011;6220;53.580;9.758;2023-06-10T07:57:26;6.27;;;2.67;;
12312;SDS011;6220;53.580;9.758;2023-06-10T07:59:51;5.87;;;2.50;;
12312;SDS011;6220;53.580;9.758;2023-06-10T08:02:17;6.97;;;2.97;;
12312;SDS011;6220;53.580;9.758;2023-06-10T08:04:42;6.53;;;2.87;;
12312;SDS011;6220;53.580;9.758;2023-06-10T08:07:07;8.43;;;2.93;;
12312;SDS011;6220;53.580;9.758;2023-06-10T08:09:33;9.23;;;3.00;;
12312;SDS011;6220;53.580;9.758;2023-06-10T08:11:58;5.67;;;3.03;;
12312;SDS011;6220;53.580;9.758;2023-06-10T08:14:23;7.77;;;3.07;;
12312;SDS011;6220;53.580;9.758;2023-06-10T08:16:49;8.27;;;3.10;;
12312;SDS011;6220;53.580;9.758;2023-06-10T08:19:14;6.17;;;2.80;;
12312;SDS011;6220;53.580;9.758;2023-06-10T08:21:40;7.43;;;2.90;;
12312;SDS011;6220;53.580;9.758;2023-06-10T08:24:06;8.10;;;3.23;;
12312;SDS011;6220;53.580;9.758;2023-06-10T08:26:32;6.03;;;2.97;;
12312;SDS011;6220;53.580;9.758;2023-06-10T08:28:57;9.90;;;3.37;;
12312;SDS011;6220;53.580;9.758;2023-06-10T08:31:22;4.60;;;2.30;;
12312;SDS011;6220;53.580;9.758;2023-06-10T08:33:48;9.23;;;3.10;;
12312;SDS011;6220;53.580;9.758;2023-06-10T08:36:14;6.53;;;2.90;;
12312;SDS011;6220;53.580;9.758;2023-06-10T08:38:40;6.20;;;2.70;;
12312;SDS011;6220;53.580;9.758;2023-06-10T08:41:05;10.43;;;3.10;;
12312;SDS011;6220;53.580;9.758;2023-06-10T08:44:08;9.40;;;3.40;;
12312;SDS011;6220;53.580;9.758;2023-06-10T08:46:24;7.47;;;2.80;;
12312;SDS011;6220;53.580;9.758;2023-06-10T08:48:51;10.33;;;3.07;;
12312;SDS011;6220;53.580;9.758;2023-06-10T08:51:20;7.37;;;3.13;;
12312;SDS011;6220;53.580;9.758;2023-06-10T08:53:53;5.90;;;3.17;;
12312;SDS011;6220;53.580;9.758;2023-06-10T08:56:26;7.97;;;3.30;;
12312;SDS011;6220;53.580;9.758;2023-06-10T08:58:53;5.50;;;3.00;;
12312;SDS011;6220;53.580;9.758;2023-06-10T09:01:18;5.37;;;3.00;;
12312;SDS011;6220;53.580;9.758;2023-06-10T09:03:44;7.63;;;3.10;;
12312;SDS011;6220;53.580;9.758;2023-06-10T09:06:09;6.23;;;2.83;;
12312;SDS011;6220;53.580;9.758;2023-06-10T09:08:35;6.30;;;3.03;;
12312;SDS011;6220;53.580;9.758;2023-06-10T09:11:00;10.10;;;3.30;;
12312;SDS011;6220;53.580;9.758;2023-06-10T09:13:26;9.63;;;3.20;;
12312;SDS011;6220;53.580;9.758;2023-06-10T09:15:51;7.17;;;3.20;;
12312;SDS011;6220;53.580;9.758;2023-06-10T09:18:17;6.80;;;3.20;;
12312;SDS011;6220;53.580;9.758;2023-06-10T09:20:43;6.53;;;2.87;;
12312;SDS011;6220;53.580;9.758;2023-06-10T09:23:08;7.57;;;3.23;;
12312;SDS011;6220;53.580;9.758;2023-06-10T09:25:38;11.77;;;3.30;;
12312;SDS011;6220;53.580;9.758;2023-06-10T09:28:04;13.77;;;2.87;;
12312;SDS011;6220;53.580;9.758;2023-06-10T09:30:31;7.97;;;3.47;;
12312;SDS011;6220;53.580;9.758;2023-06-10T09:33:02;8.77;;;2.97;;
12312;SDS011;6220;53.580;9.758;2023-06-10T09:35:29;11.30;;;2.80;;
12312;SDS011;6220;53.580;9.758;2023-06-10T09:37:56;7.83;;;3.13;;
12312;SDS011;6220;53.580;9.758;2023-06-10T09:40:23;6.77;;;3.60;;
12312;SDS011;6220;53.580;9.758;2023-06-10T09:42:55;7.30;;;3.13;;
12312;SDS011;6220;53.580;9.758;2023-06-10T09:45:22;5.90;;;2.90;;
12312;SDS011;6220;53.580;9.758;2023-06-10T09:47:52;7.27;;;3.30;;
12312;SDS011;6220;53.580;9.758;2023-06-10T09:50:18;8.40;;;3.37;;
12312;SDS011;6220;53.580;9.758;2023-06-10T09:52:45;8.73;;;3.17;;
12312;SDS011;6220;53.580;9.758;2023-06-10T09:55:11;8.63;;;3.10;;
12312;SDS011;6220;53.580;9.758;2023-06-10T09:57:37;5.03;;;2.87;;
12312;SDS011;6220;53.580;9.758;2023-06-10T10:00:07;7.80;;;3.00;;
12312;SDS011;6220;53.580;9.758;2023-06-10T10:02:50;7.20;;;3.07;;
12312;SDS011;6220;53.580;9.758;2023-06-10T10:05:18;18.97;;;4.50;;
12312;SDS011;6220;53.580;9.758;2023-06-10T10:07:44;9.73;;;3.47;;
12312;SDS011;6220;53.580;9.758;2023-06-10T10:10:11;5.27;;;3.10;;
12312;SDS011;6220;53.580;9.758;2023-06-10T10:12:38;4.87;;;3.40;;
12312;SDS011;6220;53.580;9.758;2023-06-10T10:15:05;7.30;;;3.43;;
12312;SDS011;6220;53.580;9.758;2023-06-10T10:17:32;6.13;;;3.50;;
12312;SDS011;6220;53.580;9.758;2023-06-10T10:20:03;7.20;;;3.30;;
12312;SDS011;6220;53.580;9.758;2023-06-10T10:22:41;9.70;;;3.37;;
12312;SDS011;6220;53.580;9.758;2023-06-10T10:25:12;8.80;;;3.63;;
12312;SDS011;6220;53.580;9.758;2023-06-10T10:27:44;10.57;;;3.50;;
12312;SDS011;6220;53.580;9.758;2023-06-10T10:30:14;6.30;;;3.47;;
12312;SDS011;6220;53.580;9.758;2023-06-10T10:33:15;10.57;;;3.83;;
12312;SDS011;6220;53.580;9.758;2023-06-10T10:35:34;5.57;;;3.30;;
12312;SDS011;6220;53.580;9.758;2023-06-10T10:38:01;9.53;;;3.40;;
12312;SDS011;6220;53.580;9.758;2023-06-10T10:40:27;5.17;;;3.60;;
12312;SDS011;6220;53.580;9.758;2023-06-10T10:42:55;8.10;;;4.33;;
12312;SDS011;6220;53.580;9.758;2023-06-10T10:45:21;7.43;;;3.53;;
12312;SDS011;6220;53.580;9.758;2023-06-10T10:47:48;7.50;;;3.57;;
12312;SDS011;6220;53.580;9.758;2023-06-10T10:50:18;6.50;;;3.40;;
12312;SDS011;6220;53.580;9.758;2023-06-10T10:52:54;5.30;;;3.53;;
12312;SDS011;6220;53.580;9.758;2023-06-10T10:55:21;8.97;;;3.60;;
12312;SDS011;6220;53.580;9.758;2023-06-10T10:58:06;8.10;;;3.60;;
12312;SDS011;6220;53.580;9.758;2023-06-10T11:00:33;10.83;;;3.73;;
12312;SDS011;6220;53.580;9.758;2023-06-10T11:03:14;5.20;;;3.70;;
12312;SDS011;6220;53.580;9.758;2023-06-10T11:05:44;9.50;;;3.90;;
12312;SDS011;6220;53.580;9.758;2023-06-10T11:08:13;10.83;;;3.80;;
12312;SDS011;6220;53.580;9.758;2023-06-10T11:10:39;6.53;;;3.47;;
12312;SDS011;6220;53.580;9.758;2023-06-10T11:13:15;7.40;;;3.97;;
12312;SDS011;6220;53.580;9.758;2023-06-10T11:15:43;7.70;;;3.97;;
12312;SDS011;6220;53.580;9.758;2023-06-10T11:23:29;8.97;;;3.43;;
12312;SDS011;6220;53.580;9.758;2023-06-10T11:31:21;10.60;;;3.97;;
12312;SDS011;6220;53.580;9.758;2023-06-10T11:36:20;9.80;;;4.20;;
12312;SDS011;6220;53.580;9.758;2023-06-10T11:38:46;6.97;;;3.40;;
12312;SDS011;6220;53.580;9.758;2023-06-10T11:41:11;8.47;;;3.77;;
12312;SDS011;6220;53.580;9.758;2023-06-10T11:43:40;6.83;;;3.67;;
12312;SDS011;6220;53.580;9.758;2023-06-10T11:46:08;9.37;;;3.60;;
12312;SDS011;6220;53.580;9.758;2023-06-10T11:48:33;9.10;;;3.87;;
12312;SDS011;6220;53.580;9.758;2023-06-10T11:50:59;10.70;;;3.70;;
12312;SDS011;6220;53.580;9.758;2023-06-10T11:53:24;11.83;;;4.03;;
12312;SDS011;6220;53.580;9.758;2023-06-10T11:55:50;8.43;;;3.80;;
12312;SDS011;6220;53.580;9.758;2023-06-10T12:00:52;9.73;;;4.07;;
12312;SDS011;6220;53.580;9.758;2023-06-10T12:03:19;7.27;;;3.93;;
12312;SDS011;6220;53.580;9.758;2023-06-10T12:05:58;8.50;;;4.50;;
12312;SDS011;6220;53.580;9.758;2023-06-10T12:08:24;9.83;;;3.60;;
12312;SDS011;6220;53.580;9.758;2023-06-10T12:10:50;8.50;;;3.73;;
12312;SDS011;6220;53.580;9.758;2023-06-10T12:13:15;10.00;;;4.30;;
12312;SDS011;6220;53.580;9.758;2023-06-10T12:15:42;9.70;;;4.00;;
12312;SDS011;6220;53.580;9.758;2023-06-10T12:18:15;7.03;;;3.67;;
12312;SDS011;6220;53.580;9.758;2023-06-10T12:20:41;9.20;;;3.93;;
12312;SDS011;6220;53.580;9.758;2023-06-10T12:23:11;8.00;;;4.20;;
12312;SDS011;6220;53.580;9.758;2023-06-10T12:25:37;10.67;;;4.67;;
12312;SDS011;6220;53.580;9.758;2023-06-10T12:28:03;9.30;;;4.23;;
12312;SDS011;6220;53.580;9.758;2023-06-10T12:30:28;7.00;;;4.10;;
12312;SDS011;6220;53.580;9.758;2023-06-10T12:32:54;9.90;;;4.10;;
12312;SDS011;6220;53.580;9.758;2023-06-10T12:35:21;15.03;;;4.87;;
12312;SDS011;6220;53.580;9.758;2023-06-10T12:38:00;9.53;;;4.30;;
12312;SDS011;6220;53.580;9.758;2023-06-10T12:40:28;14.07;;;4.47;;
12312;SDS011;6220;53.580;9.758;2023-06-10T12:42:56;8.70;;;4.00;;
12312;SDS011;6220;53.580;9.758;2023-06-10T12:45:28;6.10;;;4.33;;
12312;SDS011;6220;53.580;9.758;2023-06-10T12:50:35;10.47;;;4.33;;
12312;SDS011;6220;53.580;9.758;2023-06-10T12:53:02;6.87;;;4.07;;
12312;SDS011;6220;53.580;9.758;2023-06-10T12:55:27;8.60;;;4.63;;
12312;SDS011;6220;53.580;9.758;2023-06-10T12:57:53;5.97;;;4.33;;
12312;SDS011;6220;53.580;9.758;2023-06-10T13:00:20;9.60;;;4.83;;
12312;SDS011;6220;53.580;9.758;2023-06-10T13:02:45;10.40;;;4.60;;
12312;SDS011;6220;53.580;9.758;2023-06-10T13:05:11;9.03;;;4.30;;
12312;SDS011;6220;53.580;9.758;2023-06-10T13:07:36;9.03;;;4.73;;
12312;SDS011;6220;53.580;9.758;2023-06-10T13:10:02;9.73;;;4.67;;
12312;SDS011;6220;53.580;9.758;2023-06-10T13:12:27;8.30;;;4.60;;
12312;SDS011;6220;53.580;9.758;2023-06-10T13:14:54;9.30;;;4.70;;
12312;SDS011;6220;53.580;9.758;2023-06-10T13:17:20;5.40;;;4.70;;
12312;SDS011;6220;53.580;9.758;2023-06-10T13:19:45;8.97;;;4.87;;
12312;SDS011;6220;53.580;9.758;2023-06-10T13:22:11;10.07;;;4.90;;
12312;SDS011;6220;53.580;9.758;2023-06-10T13:24:38;8.27;;;4.70;;
12312;SDS011;6220;53.580;9.758;2023-06-10T13:27:04;8.87;;;4.70;;
12312;SDS011;6220;53.580;9.758;2023-06-10T13:29:31;6.40;;;4.67;;
12312;SDS011;6220;53.580;9.758;2023-06-10T13:31:56;11.30;;;4.93;;
12312;SDS011;6220;53.580;9.758;2023-06-10T13:34:22;8.67;;;4.73;;
12312;SDS011;6220;53.580;9.758;2023-06-10T13:36:47;9.87;;;4.97;;
12312;SDS011;6220;53.580;9.758;2023-06-10T13:39:13;6.23;;;4.57;;
12312;SDS011;6220;53.580;9.758;2023-06-10T13:41:40;6.77;;;4.57;;
12312;SDS011;6220;53.580;9.758;2023-06-10T13:44:06;5.43;;;4.57;;
12312;SDS011;6220;53.580;9.758;2023-06-10T13:46:32;10.03;;;5.20;;
12312;SDS011;6220;53.580;9.758;2023-06-10T13:48:57;8.67;;;4.80;;
12312;SDS011;6220;53.580;9.758;2023-06-10T13:51:22;8.13;;;4.60;;
12312;SDS011;6220;53.580;9.758;2023-06-10T13:53:49;9.33;;;5.10;;
12312;SDS011;6220;53.580;9.758;2023-06-10T13:56:17;9.37;;;4.40;;
12312;SDS011;6220;53.580;9.758;2023-06-10T13:58:43;6.03;;;4.45;;
12312;SDS011;6220;53.580;9.758;2023-06-10T14:01:08;8.02;;;4.60;;
12312;SDS011;6220;53.580;9.758;2023-06-10T14:03:33;9.40;;;5.00;;
12312;SDS011;6220;53.580;9.758;2023-06-10T14:05:59;8.30;;;4.17;;
12312;SDS011;6220;53.580;9.758;2023-06-10T14:08:24;8.30;;;4.33;;
12312;SDS011;6220;53.580;9.758;2023-06-10T14:10:49;8.17;;;4.87;;
12312;SDS011;6220;53.580;9.758;2023-06-10T14:13:18;9.68;;;5.30;;
12312;SDS011;6220;53.580;9.758;2023-06-10T14:15:51;8.77;;;4.20;;
12312;SDS011;6220;53.580;9.758;2023-06-10T14:18:16;7.50;;;4.37;;
12312;SDS011;6220;53.580;9.758;2023-06-10T14:20:42;8.30;;;5.40;;
12312;SDS011;6220;53.580;9.758;2023-06-10T14:23:07;7.72;;;4.50;;
12312;SDS011;6220;53.580;9.758;2023-06-10T14:25:32;8.25;;;4.22;;
12312;SDS011;6220;53.580;9.758;2023-06-10T14:27:57;8.27;;;4.47;;
12312;SDS011;6220;53.580;9.758;2023-06-10T14:30:23;8.93;;;4.30;;
12312;SDS011;6220;53.580;9.758;2023-06-10T14:32:48;8.17;;;4.30;;
12312;SDS011;6220;53.580;9.758;2023-06-10T14:35:14;8.53;;;3.87;;
12312;SDS011;6220;53.580;9.758;2023-06-10T14:37:39;11.67;;;4.37;;
12312;SDS011;6220;53.580;9.758;2023-06-10T14:40:05;8.00;;;4.23;;
12312;SDS011;6220;53.580;9.758;2023-06-10T14:42:30;8.30;;;3.83;;
12312;SDS011;6220;53.580;9.758;2023-06-10T14:44:57;11.40;;;3.90;;
12312;SDS011;6220;53.580;9.758;2023-06-10T14:47:22;9.20;;;3.67;;
12312;SDS011;6220;53.580;9.758;2023-06-10T14:49:48;8.27;;;4.30;;
12312;SDS011;6220;53.580;9.758;2023-06-10T14:52:13;10.83;;;3.63;;
12312;SDS011;6220;53.580;9.758;2023-06-10T14:54:38;6.77;;;3.90;;
12312;SDS011;6220;53.580;9.758;2023-06-10T14:57:04;9.07;;;3.73;;
12312;SDS011;6220;53.580;9.758;2023-06-10T14:59:31;6.47;;;4.20;;
12312;SDS011;6220;53.580;9.758;2023-06-10T15:01:56;9.17;;;3.90;;
12312;SDS011;6220;53.580;9.758;2023-06-10T15:04:22;7.07;;;4.10;;
12312;SDS011;6220;53.580;9.758;2023-06-10T15:06:47;8.50;;;3.90;;
12312;SDS011;6220;53.580;9.758;2023-06-10T15:09:14;7.17;;;3.80;;
12312;SDS011;6220;53.580;9.758;2023-06-10T15:11:39;8.93;;;4.30;;
12312;SDS011;6220;53.580;9.758;2023-06-10T15:14:05;11.40;;;4.10;;
12312;SDS011;6220;53.580;9.758;2023-06-10T15:16:30;9.60;;;4.23;;